sensor_id;sensor_type;location;lat;lon;timestamp;pressure;altitude;pressure_sealevel;temperature;humidity
67842;BME280;54642;59.126;37.876;2023-08-31T00:00:11;100033.59;;;16.24;76.50
67842;BME280;54642;59.126;37.876;2023-08-31T00:02:39;100008.66;;;16.12;76.62
67842;BME280;54642;59.126;37.876;2023-08-31T00:05:06;100005.19;;;16.12;76.30
67842;BME280;54642;59.126;37.876;2023-08-31T00:07:32;100021.50;;;16.20;76.40
67842;BME280;54642;59.126;37.876;2023-08-31T00:09:58;100003.47;;;16.11;76.27
67842;BME280;54642;59.126;37.876;2023-08-31T00:12:24;100024.91;;;16.22;76.22
67842;BME280;54642;59.126;37.876;2023-08-31T00:14:51;100016.38;;;16.17;76.52
67842;BME280;54642;59.126;37.876;2023-08-31T00:17:17;100018.16;;;16.15;76.70
67842;BME280;54642;59.126;37.876;2023-08-31T00:19:43;100023.31;;;16.18;76.55
67842;BME280;54642;59.126;37.876;2023-08-31T00:22:09;99990.47;;;16.08;76.42
67842;BME280;54642;59.126;37.876;2023-08-31T00:24:35;99990.53;;;16.06;76.23
67842;BME280;54642;59.126;37.876;2023-08-31T00:27:05;100007.81;;;16.12;76.32
67842;BME280;54642;59.126;37.876;2023-08-31T00:29:32;100011.31;;;16.11;76.43
67842;BME280;54642;59.126;37.876;2023-08-31T00:31:58;99983.81;;;15.97;76.76
67842;BME280;54642;59.126;37.876;2023-08-31T00:34:25;99996.13;;;15.94;76.71
67842;BME280;54642;59.126;37.876;2023-08-31T00:36:50;100002.16;;;15.96;76.45
67842;BME280;54642;59.126;37.876;2023-08-31T00:39:16;99993.63;;;15.89;76.63
67842;BME280;54642;59.126;37.876;2023-08-31T00:41:47;100002.22;;;15.93;76.69
67842;BME280;54642;59.126;37.876;2023-08-31T00:44:13;100003.16;;;15.92;76.66
67842;BME280;54642;59.126;37.876;2023-08-31T00:46:40;100004.88;;;15.91;76.80
67842;BME280;54642;59.126;37.876;2023-08-31T00:49:07;100001.41;;;15.91;77.19
67842;BME280;54642;59.126;37.876;2023-08-31T00:51:35;99979.19;;;15.76;76.56
67842;BME280;54642;59.126;37.876;2023-08-31T00:54:03;99999.91;;;15.82;76.87
67842;BME280;54642;59.126;37.876;2023-08-31T00:56:29;99985.31;;;15.73;77.15
67842;BME280;54642;59.126;37.876;2023-08-31T00:58:55;99998.38;;;15.75;77.22
67842;BME280;54642;59.126;37.876;2023-08-31T01:01:37;100000.13;;;15.74;77.57
67842;BME280;54642;59.126;37.876;2023-08-31T01:06:55;100007.19;;;15.69;77.64
67842;BME280;54642;59.126;37.876;2023-08-31T01:09:39;100017.66;;;15.69;77.60
67842;BME280;54642;59.126;37.876;2023-08-31T01:12:18;100021.97;;;15.70;77.74
67842;BME280;54642;59.126;37.876;2023-08-31T01:14:52;100019.44;;;15.67;77.36
67842;BME280;54642;59.126;37.876;2023-08-31T01:17:20;100030.69;;;15.71;77.81
67842;BME280;54642;59.126;37.876;2023-08-31T01:19:55;100011.78;;;15.59;78.06
67842;BME280;54642;59.126;37.876;2023-08-31T01:22:43;100023.94;;;15.62;77.85
67842;BME280;54642;59.126;37.876;2023-08-31T01:25:13;100041.16;;;15.69;77.97
67842;BME280;54642;59.126;37.876;2023-08-31T01:27:40;100024.91;;;15.58;77.93
67842;BME280;54642;59.126;37.876;2023-08-31T01:30:07;100021.44;;;15.57;77.88
67842;BME280;54642;59.126;37.876;2023-08-31T01:32:34;100033.47;;;15.63;77.91
67842;BME280;54642;59.126;37.876;2023-08-31T01:35:01;100000.78;;;15.48;78.19
67842;BME280;54642;59.126;37.876;2023-08-31T01:37:47;100040.38;;;15.66;78.38
67842;BME280;54642;59.126;37.876;2023-08-31T01:41:03;100034.41;;;15.60;78.16
67842;BME280;54642;59.126;37.876;2023-08-31T01:43:31;100037.19;;;15.54;78.17
67842;BME280;54642;59.126;37.876;2023-08-31T01:46:00;100039.72;;;15.57;78.34
67842;BME280;54642;59.126;37.876;2023-08-31T01:48:26;100043.31;;;15.53;78.38
67842;BME280;54642;59.126;37.876;2023-08-31T01:50:52;100045.84;;;15.56;78.26
67842;BME280;54642;59.126;37.876;2023-08-31T01:53:18;100015.84;;;15.38;78.40
67842;BME280;54642;59.126;37.876;2023-08-31T01:55:44;100049.38;;;15.54;78.52
67842;BME280;54642;59.126;37.876;2023-08-31T01:58:09;100031.41;;;15.41;78.86
67842;BME280;54642;59.126;37.876;2023-08-31T02:00:35;100046.94;;;15.48;78.42
67842;BME280;54642;59.126;37.876;2023-08-31T02:03:04;100047.84;;;15.45;78.56
67842;BME280;54642;59.126;37.876;2023-08-31T02:05:30;100040.19;;;15.39;78.41
67842;BME280;54642;59.126;37.876;2023-08-31T02:07:56;100058.22;;;15.48;78.63
67842;BME280;54642;59.126;37.876;2023-08-31T02:10:22;100042.03;;;15.35;78.84
67842;BME280;54642;59.126;37.876;2023-08-31T02:12:48;100042.06;;;15.34;78.66
67842;BME280;54642;59.126;37.876;2023-08-31T02:15:14;100061.03;;;15.40;78.64
67842;BME280;54642;59.126;37.876;2023-08-31T02:17:40;100056.13;;;15.28;78.74
67842;BME280;54642;59.126;37.876;2023-08-31T02:20:06;100076.81;;;15.36;78.89
67842;BME280;54642;59.126;37.876;2023-08-31T02:22:34;100062.06;;;15.35;78.79
67842;BME280;54642;59.126;37.876;2023-08-31T02:25:05;100064.63;;;15.36;79.03
67842;BME280;54642;59.126;37.876;2023-08-31T02:27:32;100054.28;;;15.32;78.69
67842;BME280;54642;59.126;37.876;2023-08-31T02:29:58;100062.81;;;15.40;79.00
67842;BME280;54642;59.126;37.876;2023-08-31T02:32:23;100036.97;;;15.29;78.79
67842;BME280;54642;59.126;37.876;2023-08-31T02:34:49;100042.97;;;15.33;78.73
67842;BME280;54642;59.126;37.876;2023-08-31T02:37:16;100057.66;;;15.37;79.07
67842;BME280;54642;59.126;37.876;2023-08-31T02:39:43;100043.75;;;15.36;79.08
67842;BME280;54642;59.126;37.876;2023-08-31T02:42:09;100025.66;;;15.29;79.10
67842;BME280;54642;59.126;37.876;2023-08-31T02:44:35;100052.41;;;15.38;79.03
67842;BME280;54642;59.126;37.876;2023-08-31T02:47:01;100054.13;;;15.38;79.14
67842;BME280;54642;59.126;37.876;2023-08-31T02:49:26;100048.00;;;15.40;78.89
67842;BME280;54642;59.126;37.876;2023-08-31T02:51:52;100039.38;;;15.37;79.20
67842;BME280;54642;59.126;37.876;2023-08-31T02:54:18;100038.56;;;15.35;78.94
67842;BME280;54642;59.126;37.876;2023-08-31T02:56:44;100043.53;;;15.44;79.04
67842;BME280;54642;59.126;37.876;2023-08-31T02:59:11;100036.63;;;15.41;79.23
67842;BME280;54642;59.126;37.876;2023-08-31T03:01:38;100020.38;;;15.30;79.35
67842;BME280;54642;59.126;37.876;2023-08-31T03:04:04;100046.94;;;15.48;79.11
67842;BME280;54642;59.126;37.876;2023-08-31T03:06:34;100041.72;;;15.48;79.15
67842;BME280;54642;59.126;37.876;2023-08-31T03:09:00;100023.72;;;15.37;78.80
67842;BME280;54642;59.126;37.876;2023-08-31T03:11:27;100046.09;;;15.47;79.29
67842;BME280;54642;59.126;37.876;2023-08-31T03:13:53;100013.41;;;15.31;78.78
67842;BME280;54642;59.126;37.876;2023-08-31T03:16:19;100051.25;;;15.49;79.05
67842;BME280;54642;59.126;37.876;2023-08-31T03:18:45;100021.06;;;15.38;79.32
67842;BME280;54642;59.126;37.876;2023-08-31T03:21:11;100001.91;;;15.38;78.98
67842;BME280;54642;59.126;37.876;2023-08-31T03:23:38;100010.47;;;15.43;79.21
67842;BME280;54642;59.126;37.876;2023-08-31T03:26:08;100010.41;;;15.46;79.31
67842;BME280;54642;59.126;37.876;2023-08-31T03:28:34;100033.72;;;15.54;79.35
67842;BME280;54642;59.126;37.876;2023-08-31T03:31:00;100048.31;;;15.61;79.09
67842;BME280;54642;59.126;37.876;2023-08-31T03:33:27;100057.81;;;15.65;78.99
67842;BME280;54642;59.126;37.876;2023-08-31T03:36:00;100056.75;;;15.72;79.10
67842;BME280;54642;59.126;37.876;2023-08-31T03:38:26;100057.59;;;15.74;78.88
67842;BME280;54642;59.126;37.876;2023-08-31T03:40:54;100049.84;;;15.70;78.73
67842;BME280;54642;59.126;37.876;2023-08-31T03:43:20;100054.19;;;15.71;78.72
67842;BME280;54642;59.126;37.876;2023-08-31T03:45:46;100060.19;;;15.76;78.85
67842;BME280;54642;59.126;37.876;2023-08-31T03:48:12;100071.97;;;15.91;78.63
67842;BME280;54642;59.126;37.876;2023-08-31T03:50:39;100064.97;;;15.91;78.71
67842;BME280;54642;59.126;37.876;2023-08-31T03:53:05;100065.91;;;15.90;78.41
67842;BME280;54642;59.126;37.876;2023-08-31T03:55:32;100057.25;;;15.88;78.63
67842;BME280;54642;59.126;37.876;2023-08-31T03:57:58;100045.06;;;15.87;78.25
67842;BME280;54642;59.126;37.876;2023-08-31T04:00:24;100070.03;;;15.99;78.19
67842;BME280;54642;59.126;37.876;2023-08-31T04:02:53;100070.81;;;16.03;78.33
67842;BME280;54642;59.126;37.876;2023-08-31T04:05:22;100061.28;;;16.00;78.23
67842;BME280;54642;59.126;37.876;2023-08-31T04:07:48;100071.56;;;16.06;78.12
67842;BME280;54642;59.126;37.876;2023-08-31T04:10:13;100072.28;;;16.11;77.83
67842;BME280;54642;59.126;37.876;2023-08-31T04:12:39;100075.66;;;16.15;77.90
67842;BME280;54642;59.126;37.876;2023-08-31T04:15:06;100066.97;;;16.14;77.55
67842;BME280;54642;59.126;37.876;2023-08-31T04:17:32;100068.56;;;16.20;77.52
67842;BME280;54642;59.126;37.876;2023-08-31T04:19:58;100072.72;;;16.27;77.38
67842;BME280;54642;59.126;37.876;2023-08-31T04:22:24;100077.72;;;16.36;77.35
67842;BME280;54642;59.126;37.876;2023-08-31T04:24:49;100081.09;;;16.40;77.51
67842;BME280;54642;59.126;37.876;2023-08-31T04:27:15;100073.19;;;16.42;77.34
67842;BME280;54642;59.126;37.876;2023-08-31T04:29:41;100075.56;;;16.51;77.08
67842;BME280;54642;59.126;37.876;2023-08-31T04:32:07;100077.91;;;16.60;76.91
67842;BME280;54642;59.126;37.876;2023-08-31T04:34:33;100077.66;;;16.68;76.92
67842;BME280;54642;59.126;37.876;2023-08-31T04:36:59;100062.72;;;16.71;76.70
67842;BME280;54642;59.126;37.876;2023-08-31T04:39:25;100046.97;;;16.73;76.71
67842;BME280;54642;59.126;37.876;2023-08-31T04:41:52;100045.88;;;16.80;76.44
67842;BME280;54642;59.126;37.876;2023-08-31T04:44:18;100045.50;;;16.94;76.58
67842;BME280;54642;59.126;37.876;2023-08-31T04:46:43;100052.97;;;17.06;76.24
67842;BME280;54642;59.126;37.876;2023-08-31T04:49:09;100045.91;;;17.08;75.91
67842;BME280;54642;59.126;37.876;2023-08-31T04:51:35;100055.13;;;17.20;75.87
67842;BME280;54642;59.126;37.876;2023-08-31T04:54:05;100040.03;;;17.28;75.39
67842;BME280;54642;59.126;37.876;2023-08-31T04:56:32;100035.44;;;17.35;75.68
67842;BME280;54642;59.126;37.876;2023-08-31T04:58:59;100016.19;;;17.36;75.06
67842;BME280;54642;59.126;37.876;2023-08-31T05:01:25;100027.97;;;17.49;74.92
67842;BME280;54642;59.126;37.876;2023-08-31T05:03:51;99992.56;;;17.38;74.28
67842;BME280;54642;59.126;37.876;2023-08-31T05:06:17;100005.41;;;17.45;73.98
67842;BME280;54642;59.126;37.876;2023-08-31T05:08:43;99980.22;;;17.41;74.31
67842;BME280;54642;59.126;37.876;2023-08-31T05:11:08;99997.00;;;17.61;73.91
67842;BME280;54642;59.126;37.876;2023-08-31T05:13:35;100006.03;;;17.77;74.09
67842;BME280;54642;59.126;37.876;2023-08-31T05:16:00;100005.75;;;17.86;73.89
67842;BME280;54642;59.126;37.876;2023-08-31T05:18:26;99996.53;;;18.00;73.55
67842;BME280;54642;59.126;37.876;2023-08-31T05:20:52;99987.53;;;18.07;73.55
67842;BME280;54642;59.126;37.876;2023-08-31T05:23:18;99983.66;;;18.17;73.64
67842;BME280;54642;59.126;37.876;2023-08-31T05:25:44;99981.69;;;18.22;73.07
67842;BME280;54642;59.126;37.876;2023-08-31T05:28:10;99972.19;;;18.20;73.45
67842;BME280;54642;59.126;37.876;2023-08-31T05:30:36;99966.84;;;18.23;72.92
67842;BME280;54642;59.126;37.876;2023-08-31T05:33:02;99934.34;;;18.03;72.90
67842;BME280;54642;59.126;37.876;2023-08-31T05:35:30;99976.94;;;18.10;73.34
67842;BME280;54642;59.126;37.876;2023-08-31T05:37:56;99981.59;;;18.02;73.87
67842;BME280;54642;59.126;37.876;2023-08-31T05:40:22;99986.50;;;17.87;74.15
67842;BME280;54642;59.126;37.876;2023-08-31T05:42:48;99972.72;;;17.81;74.23
67842;BME280;54642;59.126;37.876;2023-08-31T05:45:13;99983.44;;;17.75;74.36
67842;BME280;54642;59.126;37.876;2023-08-31T05:47:41;99976.84;;;17.63;74.59
67842;BME280;54642;59.126;37.876;2023-08-31T05:50:07;99991.41;;;17.71;74.51
67842;BME280;54642;59.126;37.876;2023-08-31T05:52:33;99999.09;;;17.76;74.52
67842;BME280;54642;59.126;37.876;2023-08-31T05:54:59;100000.81;;;17.77;74.67
67842;BME280;54642;59.126;37.876;2023-08-31T05:57:25;99986.16;;;17.71;74.11
67842;BME280;54642;59.126;37.876;2023-08-31T05:59:53;100017.28;;;17.81;74.20
67842;BME280;54642;59.126;37.876;2023-08-31T06:02:19;100024.03;;;17.88;74.08
67842;BME280;54642;59.126;37.876;2023-08-31T06:04:45;100031.00;;;17.89;73.72
67842;BME280;54642;59.126;37.876;2023-08-31T06:07:11;100007.91;;;17.73;73.75
67842;BME280;54642;59.126;37.876;2023-08-31T06:09:37;100018.78;;;17.63;74.15
67842;BME280;54642;59.126;37.876;2023-08-31T06:12:04;100019.78;;;17.59;74.07
67842;BME280;54642;59.126;37.876;2023-08-31T06:14:30;100001.78;;;17.49;74.51
67842;BME280;54642;59.126;37.876;2023-08-31T06:16:56;100006.22;;;17.47;74.21
67842;BME280;54642;59.126;37.876;2023-08-31T06:19:22;100008.56;;;17.55;74.73
67842;BME280;54642;59.126;37.876;2023-08-31T06:21:48;99972.47;;;17.38;75.11
67842;BME280;54642;59.126;37.876;2023-08-31T06:24:14;100009.31;;;17.59;74.92
67842;BME280;54642;59.126;37.876;2023-08-31T06:26:40;99995.41;;;17.57;74.92
67842;BME280;54642;59.126;37.876;2023-08-31T06:29:06;100002.25;;;17.61;74.67
67842;BME280;54642;59.126;37.876;2023-08-31T06:31:34;100000.44;;;17.63;74.84
67842;BME280;54642;59.126;37.876;2023-08-31T06:34:00;100005.94;;;17.55;74.37
67842;BME280;54642;59.126;37.876;2023-08-31T06:36:26;99995.63;;;17.50;74.61
67842;BME280;54642;59.126;37.876;2023-08-31T06:38:51;99995.56;;;17.52;74.51
67842;BME280;54642;59.126;37.876;2023-08-31T06:41:17;99987.06;;;17.45;73.85
67842;BME280;54642;59.126;37.876;2023-08-31T06:43:43;100004.06;;;17.59;74.22
67842;BME280;54642;59.126;37.876;2023-08-31T06:46:09;100012.59;;;17.65;73.93
67842;BME280;54642;59.126;37.876;2023-08-31T06:48:35;100022.09;;;17.68;73.86
67842;BME280;54642;59.126;37.876;2023-08-31T06:51:01;100004.66;;;17.67;73.23
67842;BME280;54642;59.126;37.876;2023-08-31T06:53:29;100003.06;;;17.63;73.09
67842;BME280;54642;59.126;37.876;2023-08-31T06:55:57;99994.44;;;17.59;73.01
67842;BME280;54642;59.126;37.876;2023-08-31T06:58:23;100009.00;;;17.68;73.32
67842;BME280;54642;59.126;37.876;2023-08-31T07:00:48;100001.13;;;17.68;72.98
67842;BME280;54642;59.126;37.876;2023-08-31T07:03:14;100000.97;;;17.72;73.02
67842;BME280;54642;59.126;37.876;2023-08-31T07:05:43;100022.97;;;17.94;73.36
67842;BME280;54642;59.126;37.876;2023-08-31T07:08:11;100012.38;;;17.97;73.14
67842;BME280;54642;59.126;37.876;2023-08-31T07:10:40;100018.66;;;18.16;73.30
67842;BME280;54642;59.126;37.876;2023-08-31T07:13:06;100012.22;;;18.25;72.61
67842;BME280;54642;59.126;37.876;2023-08-31T07:15:32;100008.41;;;18.34;72.78
67842;BME280;54642;59.126;37.876;2023-08-31T07:17:58;100018.88;;;18.57;72.22
67842;BME280;54642;59.126;37.876;2023-08-31T07:20:23;100011.13;;;18.76;72.40
67842;BME280;54642;59.126;37.876;2023-08-31T07:22:49;100024.28;;;18.98;71.27
67842;BME280;54642;59.126;37.876;2023-08-31T07:25:15;100021.09;;;19.12;70.75
67842;BME280;54642;59.126;37.876;2023-08-31T07:27:41;100021.50;;;19.23;70.60
67842;BME280;54642;59.126;37.876;2023-08-31T07:30:07;100018.28;;;19.17;70.98
67842;BME280;54642;59.126;37.876;2023-08-31T07:32:33;100029.13;;;19.30;70.43
67842;BME280;54642;59.126;37.876;2023-08-31T07:34:59;100027.44;;;19.29;70.46
67842;BME280;54642;59.126;37.876;2023-08-31T07:37:25;100024.75;;;19.30;70.15
67842;BME280;54642;59.126;37.876;2023-08-31T07:39:51;100006.81;;;19.19;69.99
67842;BME280;54642;59.126;37.876;2023-08-31T07:42:17;100015.19;;;19.28;69.85
67842;BME280;54642;59.126;37.876;2023-08-31T07:44:43;99998.72;;;19.24;69.88
67842;BME280;54642;59.126;37.876;2023-08-31T07:47:10;100007.88;;;19.36;69.56
67842;BME280;54642;59.126;37.876;2023-08-31T07:49:36;100000.88;;;19.35;69.39
67842;BME280;54642;59.126;37.876;2023-08-31T07:52:02;100002.03;;;19.50;68.93
67842;BME280;54642;59.126;37.876;2023-08-31T07:54:28;99993.88;;;19.56;68.99
67842;BME280;54642;59.126;37.876;2023-08-31T07:56:54;100014.25;;;19.71;68.91
67842;BME280;54642;59.126;37.876;2023-08-31T07:59:20;99993.88;;;19.56;68.75
67842;BME280;54642;59.126;37.876;2023-08-31T08:01:47;99981.13;;;19.47;69.04
67842;BME280;54642;59.126;37.876;2023-08-31T08:04:13;99997.13;;;19.40;68.88
67842;BME280;54642;59.126;37.876;2023-08-31T08:06:39;99997.88;;;19.44;69.47
67842;BME280;54642;59.126;37.876;2023-08-31T08:09:05;100000.81;;;19.36;69.44
67842;BME280;54642;59.126;37.876;2023-08-31T08:11:31;99972.50;;;19.22;69.55
67842;BME280;54642;59.126;37.876;2023-08-31T08:13:57;99994.38;;;19.43;69.54
67842;BME280;54642;59.126;37.876;2023-08-31T08:16:23;100002.94;;;19.49;69.33
67842;BME280;54642;59.126;37.876;2023-08-31T08:18:50;99988.94;;;19.48;68.80
67842;BME280;54642;59.126;37.876;2023-08-31T08:21:15;99999.78;;;19.61;68.75
67842;BME280;54642;59.126;37.876;2023-08-31T08:23:41;100005.75;;;19.65;68.64
67842;BME280;54642;59.126;37.876;2023-08-31T08:26:07;100009.06;;;19.70;68.79
67842;BME280;54642;59.126;37.876;2023-08-31T08:28:33;100006.88;;;19.79;68.02
67842;BME280;54642;59.126;37.876;2023-08-31T08:31:02;99996.75;;;19.70;68.40
67842;BME280;54642;59.126;37.876;2023-08-31T08:33:31;100003.53;;;19.76;68.31
67842;BME280;54642;59.126;37.876;2023-08-31T08:35:57;100013.34;;;19.93;67.88
67842;BME280;54642;59.126;37.876;2023-08-31T08:38:24;100015.53;;;20.02;67.49
67842;BME280;54642;59.126;37.876;2023-08-31T08:40:50;100006.47;;;20.09;67.32
67842;BME280;54642;59.126;37.876;2023-08-31T08:43:24;100006.81;;;20.21;67.17
67842;BME280;54642;59.126;37.876;2023-08-31T08:45:50;100031.50;;;20.37;67.27
67842;BME280;54642;59.126;37.876;2023-08-31T08:48:17;100019.84;;;20.24;67.27
67842;BME280;54642;59.126;37.876;2023-08-31T08:50:46;100026.50;;;20.12;67.21
67842;BME280;54642;59.126;37.876;2023-08-31T08:53:13;100012.25;;;19.97;67.47
67842;BME280;54642;59.126;37.876;2023-08-31T08:55:43;100022.97;;;20.13;66.83
67842;BME280;54642;59.126;37.876;2023-08-31T08:58:21;100018.75;;;20.28;66.75
67842;BME280;54642;59.126;37.876;2023-08-31T09:00:48;100028.03;;;20.55;66.51
67842;BME280;54642;59.126;37.876;2023-08-31T09:03:14;100004.00;;;20.63;65.63
67842;BME280;54642;59.126;37.876;2023-08-31T09:05:40;100015.09;;;20.70;65.30
67842;BME280;54642;59.126;37.876;2023-08-31T09:08:08;100007.19;;;20.70;65.58
67842;BME280;54642;59.126;37.876;2023-08-31T09:10:37;99989.19;;;20.61;65.72
67842;BME280;54642;59.126;37.876;2023-08-31T09:13:11;100029.25;;;20.67;65.86
67842;BME280;54642;59.126;37.876;2023-08-31T09:15:42;100028.63;;;20.62;65.62
67842;BME280;54642;59.126;37.876;2023-08-31T09:18:17;100026.31;;;20.54;65.77
67842;BME280;54642;59.126;37.876;2023-08-31T09:20:48;100024.88;;;20.47;65.60
67842;BME280;54642;59.126;37.876;2023-08-31T09:23:15;100038.59;;;20.35;65.85
67842;BME280;54642;59.126;37.876;2023-08-31T09:25:45;100025.28;;;20.19;66.35
67842;BME280;54642;59.126;37.876;2023-08-31T09:28:14;100038.84;;;20.30;66.38
67842;BME280;54642;59.126;37.876;2023-08-31T09:30:41;100018.50;;;20.34;66.25
67842;BME280;54642;59.126;37.876;2023-08-31T09:33:15;100038.94;;;20.67;65.78
67842;BME280;54642;59.126;37.876;2023-08-31T09:35:56;100044.84;;;20.72;65.78
67842;BME280;54642;59.126;37.876;2023-08-31T09:38:23;100031.59;;;20.73;65.69
67842;BME280;54642;59.126;37.876;2023-08-31T09:40:49;100038.09;;;20.66;65.90
67842;BME280;54642;59.126;37.876;2023-08-31T09:43:22;100047.41;;;20.73;65.33
67842;BME280;54642;59.126;37.876;2023-08-31T09:45:49;100048.13;;;20.77;65.72
67842;BME280;54642;59.126;37.876;2023-08-31T09:48:17;100054.09;;;20.81;65.87
67842;BME280;54642;59.126;37.876;2023-08-31T09:50:44;100028.66;;;20.80;65.38
67842;BME280;54642;59.126;37.876;2023-08-31T09:53:16;100039.00;;;20.84;65.31
67842;BME280;54642;59.126;37.876;2023-08-31T09:55:43;100023.78;;;20.72;65.22
67842;BME280;54642;59.126;37.876;2023-08-31T09:58:09;100031.69;;;20.72;65.54
67842;BME280;54642;59.126;37.876;2023-08-31T10:00:36;100032.59;;;20.71;65.13
67842;BME280;54642;59.126;37.876;2023-08-31T10:03:04;100012.22;;;20.74;65.40
67842;BME280;54642;59.126;37.876;2023-08-31T10:05:31;99995.50;;;20.75;65.39
67842;BME280;54642;59.126;37.876;2023-08-31T10:07:58;100014.13;;;20.90;65.16
67842;BME280;54642;59.126;37.876;2023-08-31T10:10:27;100015.75;;;20.92;65.25
67842;BME280;54642;59.126;37.876;2023-08-31T10:12:54;100018.38;;;20.92;64.84
67842;BME280;54642;59.126;37.876;2023-08-31T10:15:20;100022.03;;;20.90;64.79
67842;BME280;54642;59.126;37.876;2023-08-31T10:17:46;100016.69;;;20.91;64.99
67842;BME280;54642;59.126;37.876;2023-08-31T10:20:15;100010.47;;;20.92;65.09
67842;BME280;54642;59.126;37.876;2023-08-31T10:22:41;99995.69;;;20.90;64.97
67842;BME280;54642;59.126;37.876;2023-08-31T10:25:09;99999.53;;;21.02;65.09
67842;BME280;54642;59.126;37.876;2023-08-31T10:27:41;99992.25;;;21.07;64.85
67842;BME280;54642;59.126;37.876;2023-08-31T10:30:16;100010.69;;;21.07;64.55
67842;BME280;54642;59.126;37.876;2023-08-31T10:38:22;99993.34;;;21.20;64.33
67842;BME280;54642;59.126;37.876;2023-08-31T10:46:35;99973.28;;;21.18;64.12
67842;BME280;54642;59.126;37.876;2023-08-31T10:51:42;99991.53;;;21.21;64.68
67842;BME280;54642;59.126;37.876;2023-08-31T11:02:30;99968.84;;;21.18;63.71
67842;BME280;54642;59.126;37.876;2023-08-31T11:05:05;99982.66;;;21.23;63.13
67842;BME280;54642;59.126;37.876;2023-08-31T11:07:32;99974.66;;;21.25;63.35
67842;BME280;54642;59.126;37.876;2023-08-31T11:10:22;99976.41;;;21.24;63.32
67842;BME280;54642;59.126;37.876;2023-08-31T11:12:51;99970.53;;;21.19;63.24
67842;BME280;54642;59.126;37.876;2023-08-31T11:15:24;99968.59;;;21.23;63.26
67842;BME280;54642;59.126;37.876;2023-08-31T11:17:52;99978.91;;;21.27;62.96
67842;BME280;54642;59.126;37.876;2023-08-31T11:20:20;99990.84;;;21.35;63.04
67842;BME280;54642;59.126;37.876;2023-08-31T11:22:48;99985.66;;;21.33;62.64
67842;BME280;54642;59.126;37.876;2023-08-31T11:25:19;99968.38;;;21.27;62.97
67842;BME280;54642;59.126;37.876;2023-08-31T11:28:05;99987.44;;;21.32;62.90
67842;BME280;54642;59.126;37.876;2023-08-31T11:30:32;99983.78;;;21.35;62.48
67842;BME280;54642;59.126;37.876;2023-08-31T11:33:08;99981.16;;;21.35;62.67
67842;BME280;54642;59.126;37.876;2023-08-31T11:35:38;99986.41;;;21.35;62.55
67842;BME280;54642;59.126;37.876;2023-08-31T11:38:06;99979.47;;;21.34;62.06
67842;BME280;54642;59.126;37.876;2023-08-31T11:40:33;99985.44;;;21.38;61.99
67842;BME280;54642;59.126;37.876;2023-08-31T11:42:59;99977.19;;;21.26;61.62
67842;BME280;54642;59.126;37.876;2023-08-31T11:45:29;99979.75;;;21.28;61.60
67842;BME280;54642;59.126;37.876;2023-08-31T11:47:57;99981.41;;;21.30;61.48
67842;BME280;54642;59.126;37.876;2023-08-31T11:50:24;99971.09;;;21.26;61.67
67842;BME280;54642;59.126;37.876;2023-08-31T11:52:51;99977.66;;;21.35;61.07
67842;BME280;54642;59.126;37.876;2023-08-31T11:55:19;99979.00;;;21.26;61.10
67842;BME280;54642;59.126;37.876;2023-08-31T11:57:50;99967.69;;;21.24;60.98
67842;BME280;54642;59.126;37.876;2023-08-31T12:00:17;99966.44;;;21.31;61.42
67842;BME280;54642;59.126;37.876;2023-08-31T12:02:43;99960.94;;;21.36;61.05
67842;BME280;54642;59.126;37.876;2023-08-31T12:05:12;99960.00;;;21.37;60.88
67842;BME280;54642;59.126;37.876;2023-08-31T12:07:41;99949.16;;;21.25;60.52
67842;BME280;54642;59.126;37.876;2023-08-31T12:10:08;99961.22;;;21.29;60.95
67842;BME280;54642;59.126;37.876;2023-08-31T12:12:35;99962.19;;;21.28;61.00
67842;BME280;54642;59.126;37.876;2023-08-31T12:15:05;99944.81;;;21.24;61.12
67842;BME280;54642;59.126;37.876;2023-08-31T12:17:31;99961.72;;;21.38;61.02
67842;BME280;54642;59.126;37.876;2023-08-31T12:20:04;99964.28;;;21.39;60.83
67842;BME280;54642;59.126;37.876;2023-08-31T12:22:33;99965.13;;;21.40;60.87
67842;BME280;54642;59.126;37.876;2023-08-31T12:24:59;99948.69;;;21.35;60.50
67842;BME280;54642;59.126;37.876;2023-08-31T12:27:25;99964.84;;;21.44;60.58
67842;BME280;54642;59.126;37.876;2023-08-31T12:29:51;99961.34;;;21.45;60.88
67842;BME280;54642;59.126;37.876;2023-08-31T12:32:17;99962.31;;;21.43;61.14
67842;BME280;54642;59.126;37.876;2023-08-31T12:34:46;99969.47;;;21.58;60.60
67842;BME280;54642;59.126;37.876;2023-08-31T12:37:12;99957.16;;;21.59;60.38
67842;BME280;54642;59.126;37.876;2023-08-31T12:39:39;99957.84;;;21.62;60.28
67842;BME280;54642;59.126;37.876;2023-08-31T12:42:07;99962.22;;;21.62;60.56
67842;BME280;54642;59.126;37.876;2023-08-31T12:44:33;99946.59;;;21.59;60.76
67842;BME280;54642;59.126;37.876;2023-08-31T12:46:59;99961.66;;;21.73;60.44
67842;BME280;54642;59.126;37.876;2023-08-31T12:49:25;99945.94;;;21.71;61.04
67842;BME280;54642;59.126;37.876;2023-08-31T12:51:51;99954.06;;;21.84;60.75
67842;BME280;54642;59.126;37.876;2023-08-31T12:54:18;99960.88;;;21.88;60.91
67842;BME280;54642;59.126;37.876;2023-08-31T12:56:44;99958.22;;;21.88;60.80
67842;BME280;54642;59.126;37.876;2023-08-31T12:59:10;99948.88;;;21.82;60.97
67842;BME280;54642;59.126;37.876;2023-08-31T13:01:36;99951.16;;;21.88;60.94
67842;BME280;54642;59.126;37.876;2023-08-31T13:04:02;99940.00;;;21.83;60.72
67842;BME280;54642;59.126;37.876;2023-08-31T13:06:28;99957.38;;;21.87;60.80
67842;BME280;54642;59.126;37.876;2023-08-31T13:08:54;99940.41;;;21.76;60.43